This is the latest recevied weather packets stored in our database for station/object SV9TNF-1. If no packets are shown the sender has not sent any weather packets the latest 10 day(s).
| Time | Temp. | Humidity | Pressure | Rain* | Wind** | Luminosity | Snow |
|---|---|---|---|---|---|---|---|
| 1778150155 | 23.89° C | 51% | 1006.8 hPa | 0 mm | 5.81 m/s, 92° | - | - |
| 1778149855 | 23.89° C | 50% | 1006.8 hPa | 0 mm | 5.81 m/s, 134° | - | - |
| 1778149556 | 24.44° C | 48% | 1006.8 hPa | 0 mm | 3.13 m/s, 102° | - | - |
| 1778149256 | 23.89° C | 51% | 1006.8 hPa | 0 mm | 3.58 m/s, 129° | - | - |
| 1778148955 | 22.78° C | 54% | 1006.8 hPa | 0 mm | 5.81 m/s, 124° | - | - |
| 1778148655 | 23.33° C | 51% | 1006.8 hPa | 0 mm | 5.81 m/s, 113° | - | - |
| 1778148355 | 23.33° C | 53% | 1006.8 hPa | 0 mm | 8.05 m/s, 106° | - | - |
| 1778148055 | 23.89° C | 53% | 1006.8 hPa | 0 mm | 3.13 m/s, 122° | - | - |
| 1778147755 | 23.89° C | 51% | 1006.4 hPa | 0 mm | 3.58 m/s, 94° | - | - |
| 1778147454 | 23.33° C | 55% | 1006.4 hPa | 0 mm | 3.58 m/s, 117° | - | - |
| 1778147154 | 23.33° C | 54% | 1006.4 hPa | 0 mm | 6.26 m/s, 102° | - | - |
| 1778146855 | 23.33° C | 55% | 1006.4 hPa | 0 mm | 6.71 m/s, 104° | - | - |
| 1778146554 | 23.33° C | 51% | 1006.8 hPa | 0 mm | 5.36 m/s, 92° | - | - |
| 1778146254 | 23.89° C | 48% | 1006.8 hPa | 0 mm | 4.92 m/s, 96° | - | - |
| 1778145955 | 23.33° C | 52% | 1006.8 hPa | 0 mm | 7.6 m/s, 115° | - | - |
| 1778145654 | 22.78° C | 47% | 1006.8 hPa | 0 mm | 7.15 m/s, 99° | - | - |
| 1778145354 | 23.33° C | 48% | 1006.8 hPa | 0 mm | 5.81 m/s, 121° | - | - |
| 1778145054 | 23.33° C | 50% | 1006.8 hPa | 0 mm | 6.71 m/s, 111° | - | - |
| 1778144754 | 22.78° C | 53% | 1006.8 hPa | 0 mm | 5.81 m/s, 112° | - | - |
| 1778144454 | 22.78° C | 53% | 1006.8 hPa | 0 mm | 5.81 m/s, 118° | - | - |
| 1778144154 | 23.33° C | 52% | 1006.8 hPa | 0 mm | 4.47 m/s, 115° | - | - |
| 1778143854 | 23.33° C | 52% | 1006.8 hPa | 0 mm | 3.58 m/s, 100° | - | - |
| 1778143553 | 23.33° C | 53% | 1007.5 hPa | 0 mm | 1.79 m/s, 111° | - | - |
| 1778143253 | 22.78° C | 53% | 1007.5 hPa | 0 mm | 7.6 m/s, 101° | - | - |
| 1778142953 | 22.78° C | 50% | 1006.8 hPa | 0 mm | 5.81 m/s, 104° | - | - |
* Rain latest hour (hover to see other rain measurements)
** Current wind speed in m/s (hover to see current wind gust speed)